MAO weather

Eduardo Gomes International Airport
Manaus, Amazonas, Brazil

Public forecast

Using degrees Celsius for public forecast. Weather courtesy of forecast.io.

METAR (pilot weather report)

Retrieved 2019/08/18 05:00 UTC (50 minutes ago):

SBEG 180500Z 31003KT CAVOK 23/23 Q1013

TAF (pilot weather forecast)

Retrieved 2019/08/18 00:00 UTC (6 hours ago):

TAF SBEG 172100Z 1800/1824 31005KT CAVOK TN23/1810Z TX32/1819Z PROB30 1809/1813 BKN006 BECMG 1814/1817 06010KT SCT020 FEW025TCU PROB30 TEMPO 1817/1824 4000 SHRA BECMG 1822/1824 31005KT RMK PHI